createdAt,value
2023-03-12T00:03:47.124Z,24.73
2023-03-12T00:08:49.584Z,5.57
2023-03-12T00:13:53.852Z,11.80
2023-03-12T00:18:56.505Z,10.83
2023-03-12T00:23:58.878Z,13.97
2023-03-12T00:29:01.725Z,6.87
2023-03-12T00:34:04.216Z,14.27
2023-03-12T00:39:06.724Z,4.73
2023-03-12T00:44:10.152Z,10.13
2023-03-12T00:49:12.467Z,8.77
2023-03-12T00:54:14.814Z,11.20
2023-03-12T00:59:17.139Z,8.43
2023-03-12T01:04:19.474Z,5.83
2023-03-12T01:09:21.943Z,7.20
2023-03-12T01:14:24.283Z,7.00
2023-03-12T01:19:26.787Z,15.07
2023-03-12T01:24:29.069Z,6.63
2023-03-12T01:29:31.359Z,11.93
2023-03-12T01:34:35.539Z,10.73
2023-03-12T01:39:37.866Z,8.60
2023-03-12T01:44:51.757Z,11.17
2023-03-12T01:49:56.073Z,5.70
2023-03-12T01:55:04.140Z,9.87
2023-03-12T02:00:15.004Z,9.43
2023-03-12T02:05:27.930Z,3.33
2023-03-12T02:10:30.382Z,5.67
2023-03-12T02:15:35.499Z,6.30
2023-03-12T02:20:46.947Z,66.33
2023-03-12T02:25:51.834Z,3.83
2023-03-12T02:30:59.827Z,2.30
2023-03-12T02:36:02.175Z,7.57
2023-03-12T02:41:12.012Z,2.07
2023-03-12T02:46:15.467Z,3.20
2023-03-12T02:51:18.081Z,5.17
2023-03-12T02:56:23.107Z,3.30
2023-03-12T03:01:26.827Z,6.73
2023-03-12T03:06:29.979Z,4.43
2023-03-12T03:11:32.353Z,4.60
2023-03-12T03:16:37.679Z,5.00
2023-03-12T03:21:40.075Z,10.83
2023-03-12T03:26:42.747Z,65.53
2023-03-12T03:31:45.167Z,27.37
2023-03-12T03:36:47.858Z,16.37
2023-03-12T03:41:52.466Z,11.80
2023-03-12T03:46:58.906Z,29.17
2023-03-12T03:52:01.244Z,49.80
2023-03-12T03:57:09.244Z,9.53
2023-03-12T04:02:11.625Z,12.83
2023-03-12T04:07:15.049Z,1.20
2023-03-12T04:12:17.837Z,15.03
2023-03-12T04:17:20.195Z,8.23
2023-03-12T04:22:23.060Z,3.77
2023-03-12T04:27:25.509Z,7.47
2023-03-12T04:32:28.029Z,17.47
2023-03-12T04:37:33.978Z,6.90
2023-03-12T04:42:37.886Z,5.27
2023-03-12T04:47:40.399Z,5.50
2023-03-12T04:52:43.349Z,4.37
2023-03-12T04:57:46.898Z,4.37
2023-03-12T05:02:49.299Z,6.80
2023-03-12T05:07:52.615Z,5.13
2023-03-12T05:12:55.108Z,4.63
2023-03-12T05:17:57.522Z,38.03
2023-03-12T05:22:59.840Z,18.90
2023-03-12T05:28:02.374Z,10.43
2023-03-12T05:33:04.960Z,9.90
2023-03-12T05:38:07.362Z,4.90
2023-03-12T05:43:09.686Z,5.80
2023-03-12T05:48:12.292Z,10.17
2023-03-12T05:53:14.792Z,38.00
2023-03-12T05:58:19.011Z,10.73
2023-03-12T06:03:22.018Z,6.23
2023-03-12T06:08:24.772Z,4.93
2023-03-12T06:13:28.453Z,6.13
2023-03-12T06:18:33.874Z,6.47
2023-03-12T06:23:36.896Z,11.03
2023-03-12T06:28:39.875Z,6.33
2023-03-12T06:33:42.164Z,7.47
2023-03-12T06:38:44.475Z,8.90
2023-03-12T06:43:47.715Z,10.70
2023-03-12T06:48:50.040Z,4.83
2023-03-12T06:53:52.339Z,6.47
2023-03-12T06:58:54.585Z,6.70
2023-03-12T07:03:56.936Z,6.93
2023-03-12T07:08:59.166Z,2.97
2023-03-12T07:14:01.725Z,3.67
2023-03-12T07:19:04.528Z,14.80
2023-03-12T07:24:08.270Z,95.67
2023-03-12T07:29:10.746Z,15.83
2023-03-12T07:34:13.750Z,79.93
2023-03-12T07:39:16.094Z,13.53
2023-03-12T07:44:18.351Z,3.53
2023-03-12T07:49:20.578Z,6.10
2023-03-12T07:54:25.756Z,7.70
2023-03-12T07:59:28.147Z,5.83
2023-03-12T08:04:30.535Z,4.00
2023-03-12T08:09:33.337Z,4.57
2023-03-12T08:14:36.117Z,7.30
2023-03-12T08:19:38.509Z,3.87
2023-03-12T08:24:40.986Z,3.97
2023-03-12T08:29:43.245Z,1.97
2023-03-12T08:34:45.508Z,5.53
2023-03-12T08:39:47.752Z,2.30
2023-03-12T08:44:50.100Z,4.97
2023-03-12T08:49:52.501Z,5.80
2023-03-12T08:54:54.770Z,2.50
2023-03-12T08:59:57.087Z,2.63
2023-03-12T09:04:59.357Z,3.63
2023-03-12T09:10:01.744Z,2.57
2023-03-12T09:15:05.207Z,2.23
2023-03-12T09:20:14.097Z,6.07
2023-03-12T09:25:17.046Z,6.20
2023-03-12T09:30:21.871Z,18.03
2023-03-12T09:35:24.325Z,9.30
2023-03-12T09:40:31.014Z,31.43
2023-03-12T09:45:39.400Z,7.30
2023-03-12T09:50:45.940Z,4.60
2023-03-12T09:55:50.899Z,6.70
2023-03-12T10:01:01.854Z,5.13
2023-03-12T10:06:15.412Z,3.93
2023-03-12T10:12:03.761Z,3.33
2023-03-12T10:17:50.340Z,2.07
2023-03-12T10:23:11.292Z,6.63
2023-03-12T10:28:21.901Z,11.77
2023-03-12T10:33:30.598Z,6.90
2023-03-12T10:38:32.839Z,9.77
2023-03-12T10:43:35.786Z,3.30
2023-03-12T10:48:38.393Z,7.70
2023-03-12T10:53:47.944Z,4.67
2023-03-12T10:58:53.096Z,6.37
2023-03-12T11:04:09.520Z,8.30
2023-03-12T11:09:18.769Z,5.87
2023-03-12T11:14:27.363Z,10.57
2023-03-12T11:19:35.105Z,5.70
2023-03-12T11:24:55.688Z,5.40
2023-03-12T11:29:59.095Z,5.27
2023-03-12T11:35:01.979Z,4.47
2023-03-12T11:40:13.844Z,6.83
2023-03-12T11:45:32.514Z,6.07
2023-03-12T11:50:51.009Z,3.43
2023-03-12T11:56:25.824Z,10.90
2023-03-12T12:01:46.940Z,5.90
2023-03-12T12:06:52.588Z,7.93
2023-03-12T12:12:25.126Z,17.57
2023-03-12T12:17:36.858Z,5.40
2023-03-12T12:23:04.568Z,4.80
2023-03-12T12:28:43.767Z,4.70
2023-03-12T12:34:23.218Z,3.00
2023-03-12T12:39:37.589Z,3.27
2023-03-12T12:44:51.850Z,4.63
2023-03-12T12:49:58.748Z,5.00
2023-03-12T12:55:15.579Z,5.67
2023-03-12T13:00:26.108Z,3.17
2023-03-12T13:05:37.530Z,4.13
2023-03-12T13:10:48.623Z,5.30
2023-03-12T13:16:30.205Z,2.00
2023-03-12T13:21:38.151Z,4.80
2023-03-12T13:26:49.699Z,4.73
2023-03-12T13:31:51.973Z,6.30
2023-03-12T13:36:59.966Z,3.93
2023-03-12T13:42:24.864Z,3.03
2023-03-12T13:47:28.973Z,5.53
2023-03-12T13:52:48.807Z,5.70
2023-03-12T13:58:01.760Z,5.93
2023-03-12T14:03:12.229Z,5.67
2023-03-12T14:08:21.538Z,5.87
2023-03-12T14:13:38.599Z,6.17
2023-03-12T14:18:44.729Z,3.70
2023-03-12T14:23:55.816Z,28.47
2023-03-12T14:29:23.161Z,3.97
2023-03-12T14:34:33.892Z,4.20
2023-03-12T14:39:45.500Z,6.67
2023-03-12T14:45:10.323Z,4.87
2023-03-12T14:50:37.092Z,3.77
2023-03-12T14:55:39.420Z,3.83
2023-03-12T15:00:43.727Z,6.17
2023-03-12T15:05:47.733Z,6.63
2023-03-12T15:10:56.659Z,7.87
2023-03-12T15:15:59.210Z,13.90
2023-03-12T15:21:03.172Z,6.83
2023-03-12T15:26:09.479Z,7.80
2023-03-12T15:31:15.675Z,5.33
2023-03-12T15:36:26.718Z,13.50
2023-03-12T15:41:45.355Z,40.60
2023-03-12T15:46:53.834Z,91.07
2023-03-12T15:52:22.044Z,56.03
2023-03-12T15:57:26.098Z,21.17
2023-03-12T16:02:36.593Z,15.07
2023-03-12T16:07:38.990Z,13.43
2023-03-12T16:12:43.494Z,17.87
2023-03-12T16:17:45.766Z,43.87
2023-03-12T16:22:48.045Z,27.37
2023-03-12T16:27:53.971Z,22.53
2023-03-12T16:32:58.337Z,38.67
2023-03-12T16:38:01.431Z,128.77
2023-03-12T16:43:06.785Z,279.67
2023-03-12T16:48:17.830Z,78.73
2023-03-12T16:53:20.770Z,71.40
2023-03-12T16:58:24.786Z,71.53
2023-03-12T17:03:30.108Z,144.00
2023-03-12T17:08:32.996Z,51.90
2023-03-12T17:13:36.092Z,95.53
2023-03-12T17:18:39.745Z,76.30
2023-03-12T17:23:42.280Z,167.17
2023-03-12T17:28:44.690Z,95.17
2023-03-12T17:33:46.950Z,70.97
2023-03-12T17:38:51.047Z,27.03
2023-03-12T17:43:53.424Z,57.40
2023-03-12T17:48:55.887Z,29.53
2023-03-12T17:53:58.172Z,89.87
2023-03-12T17:59:00.400Z,184.80
2023-03-12T18:04:02.806Z,145.00
2023-03-12T18:09:05.058Z,180.87
2023-03-12T18:14:07.306Z,96.00
2023-03-12T18:19:09.650Z,100.47
2023-03-12T18:24:14.556Z,89.00
2023-03-12T18:29:17.066Z,77.60
2023-03-12T18:34:20.772Z,78.53
2023-03-12T18:39:23.178Z,60.00
2023-03-12T18:44:25.509Z,29.23
2023-03-12T18:49:27.751Z,16.90
2023-03-12T18:54:30.007Z,16.53
2023-03-12T18:59:32.521Z,29.07
2023-03-12T19:04:35.223Z,54.63
2023-03-12T19:09:37.607Z,31.87
2023-03-12T19:14:39.911Z,131.13
2023-03-12T19:19:42.176Z,212.23
2023-03-12T19:24:44.582Z,62.47
2023-03-12T19:29:46.820Z,21.67
2023-03-12T19:34:51.752Z,37.73
2023-03-12T19:39:54.568Z,64.13
2023-03-12T19:44:56.821Z,47.60
2023-03-12T19:49:59.443Z,74.10
2023-03-12T19:55:05.131Z,30.23
2023-03-12T20:00:10.216Z,43.47
2023-03-12T20:05:12.986Z,40.40
2023-03-12T20:10:15.612Z,40.67
2023-03-12T20:15:18.336Z,18.53
2023-03-12T20:20:20.942Z,32.63
2023-03-12T20:25:23.274Z,63.17
2023-03-12T20:30:25.562Z,33.70
2023-03-12T20:35:27.842Z,12.83
2023-03-12T20:40:30.214Z,15.70
2023-03-12T20:45:33.913Z,13.43
2023-03-12T20:50:38.899Z,18.27
2023-03-12T20:55:41.360Z,11.83
2023-03-12T21:00:44.288Z,10.27
2023-03-12T21:05:54.869Z,5.07
2023-03-12T21:10:57.180Z,8.90
2023-03-12T21:15:59.464Z,13.57
2023-03-12T21:21:03.719Z,27.17
2023-03-12T21:26:09.364Z,18.67
2023-03-12T21:31:14.557Z,24.73
2023-03-12T21:36:16.942Z,33.33
2023-03-12T21:41:19.973Z,11.37
2023-03-12T21:46:27.180Z,12.73
2023-03-12T21:51:29.465Z,13.43
2023-03-12T21:56:31.742Z,15.07
2023-03-12T22:01:34.088Z,14.90
2023-03-12T22:06:36.340Z,30.77
2023-03-12T22:11:38.531Z,29.70
2023-03-12T22:16:40.804Z,10.07
2023-03-12T22:21:43.093Z,15.43
2023-03-12T22:26:46.117Z,23.33
2023-03-12T22:31:48.353Z,14.93
2023-03-12T22:36:50.760Z,18.40
2023-03-12T22:41:53.654Z,23.67
2023-03-12T22:46:56.015Z,19.17
2023-03-12T22:51:58.317Z,12.43
2023-03-12T22:57:00.567Z,12.40
2023-03-12T23:02:02.853Z,27.93
2023-03-12T23:07:14.157Z,14.13
2023-03-12T23:12:19.324Z,10.23
2023-03-12T23:17:21.840Z,14.53
2023-03-12T23:22:24.100Z,12.13
2023-03-12T23:27:26.395Z,18.07
2023-03-12T23:32:28.659Z,12.63
2023-03-12T23:37:30.923Z,7.37
2023-03-12T23:42:33.348Z,14.73
2023-03-12T23:47:35.629Z,9.50
2023-03-12T23:52:37.860Z,11.57
2023-03-12T23:57:40.186Z,10.77
